x

Neah Bay, - 6nm North Of Cape Flattery, Wa (traffic Separation Lighted Buoy) (46087) Wave Buoy

8:20 - Mon 21st Aug 2017 All times are PDT. -7 hours from GMT.

  • Sig Wave height 3.6ft
  • Swell Direction
  • Peak Period 9s
  • Average Period 7s
  • Wind
  • Sea Temp 53°f
  • Ar Temp 53°f
  • Sea Pressure 1020.7mb
  • Neah Bay, - 6nm North Of Cape Flattery, Wa     (traffic Separation Lighted Buoy)
  • Neah Bay, - 6nm North Of Cape Flattery, Wa     (traffic Separation Lighted Buoy)

More Historic Weather Station data

Upgrade to MSW Pro to gain access to the past 30 days of data for over 8000 Wavebouys and Weather Stations around the globe.

Join

Comparision Forecast

View Surf forecast
   
Seg 08/21 8:20 3.5ft 9s 7s  -  2 mph 1020.7mb 53f 53f
7:50 4.5ft 8s 8s 2 2 mph 1020.6mb 53f 53f
7:20 4ft 8s 8s  -  2 mph 1020.4mb 53f 53f
6:20 4.5ft 8s 8s  -  0 mph 1020.2mb 53f 53f
5:50 5ft 8s 8s 2 2 mph 1020.2mb 54f 53f
5:20 4.5ft 11s 8s 4 4 mph 1020mb 54f 53f
4:50 4.5ft 8s 7s 4 7 mph 1019.9mb 54f 53f
4:20 4.5ft 8s 7s 2 4 mph 1019.8mb 54f 52f
3:50 4.5ft 9s 7s  -  2 mph 1019.9mb 54f 52f
3:20 4.5ft 10s 7s 2 2 mph 1019.9mb 54f 53f
2:50 5ft 9s 7s 4 4 mph 1019.9mb 54f 53f
2:20 4.5ft 9s 7s 4 7 mph 1020mb 54f 53f
1:50 4.5ft 8s 7s 4 4 mph 1019.9mb 53f 53f
1:20 4.5ft 9s 7s 7 9 mph 1020mb 52f 53f
12:50 4.5ft 10s 6s 7 7 mph 1020mb 53f 53f
12:20 4.5ft 10s 7s 7 7 mph 1020.2mb 52f 53f
Dom 08/20 11:50 4.5ft 10s 7s 7 9 mph 1020.2mb 53f 54f
11:20 4.5ft 10s 7s 7 7 mph 1020.2mb 53f 54f
10:50 4ft 10s 7s 7 7 mph 1020.3mb 53f 54f
10:20 5ft 10s 8s 7 7 mph 1020.2mb 53f 55f
9:50 4.5ft 10s 7s 4 7 mph 1020.3mb 53f 55f
9:20 4.5ft 10s 8s 9 9 mph 1020.1mb 54f 55f
8:50 4.5ft 10s 8s 7 7 mph 1020.2mb 54f 56f
8:20 4ft 11s 8s 9 11 mph 1020.2mb 54f 56f
7:50 4.5ft 9s 8s 9 11 mph 1020mb 54f 56f
7:20 4.5ft 10s 8s 9 13 mph 1020.1mb 55f 56f
6:50 4.5ft 10s 7s 7 9 mph 1020.3mb 55f 55f
6:20 4.5ft 10s 8s 9 11 mph 1020.3mb 55f 56f
5:50 5ft 10s 7s 9 11 mph 1020.4mb 55f 56f
5:20 4.5ft 10s 7s 7 9 mph 1020.5mb 55f 56f
4:20 4.5ft 10s 7s 9 11 mph 1020.6mb 55f 56f
3:50 4.5ft 9s 7s 9 9 mph 1021.1mb 55f 56f
3:20 4.5ft 10s 7s 7 9 mph 1021.4mb 55f 56f
2:50 4.5ft 10s 7s 9 9 mph 1021.2mb 55f 55f
2:20 5ft 8s 7s 7 7 mph 1021.4mb 55f 55f
1:50 4.5ft 9s 6s 9 11 mph 1021.3mb 54f 55f
1:20 5ft 8s 6s 9 11 mph 1021.2mb 54f 55f
12:50 5ft 8s 6s 9 11 mph 1021.3mb 54f 55f
12:20 5ft 8s 6s 9 11 mph 1021.2mb 54f 55f
11:50 5.5ft 8s 7s 9 11 mph 1021.1mb 54f 54f
11:20 5.5ft 10s 7s 7 9 mph 1021.2mb 54f 54f
10:50 5ft 9s 6s 4 7 mph 1021.3mb 54f 55f
10:20 5.5ft 10s 7s 4 4 mph 1021.4mb 54f 54f
9:50 5ft 9s 7s  -  2 mph 1021.5mb 54f 54f
9:20 5ft 9s 7s  -  2 mph 1021.5mb 54f 54f
8:50 5ft 10s 7s  -  2 mph 1021.6mb 54f 54f
8:20 5ft 9s 7s  -  2 mph 1021.5mb 54f 54f
7:50 5.5ft 10s 8s  -  2 mph 1021.1mb 53f 54f
7:20 5ft 10s 8s 2 2 mph 1021.3mb 54f 53f
6:50 5ft 10s 8s 2 2 mph 1021.4mb 54f 53f
6:20 6ft 10s 8s 2 4 mph 1021.2mb 54f 53f
5:50 5.5ft 10s 8s 2 4 mph 1021.2mb 54f 53f
5:20 6ft 10s 8s 2 2 mph 1021.3mb 54f 54f
4:50 5.5ft 9s 8s  -  2 mph 1021.3mb 54f 54f
4:20 5.5ft 10s 7s 2 2 mph 1021.3mb 54f 54f
3:50 6ft 10s 7s 2 4 mph 1021.3mb 54f 54f
3:20 6ft 10s 7s 2 4 mph 1021.5mb 53f 54f
2:50 5ft 10s 7s 4 7 mph 1021.6mb 53f 54f
2:20 5.5ft 9s 7s 4 7 mph 1021.5mb 53f 54f
1:50 5ft 9s 7s 4 7 mph 1021.5mb 53f 54f
1:20 5ft 9s 7s 4 7 mph 1021.6mb 53f 53f
12:50 5.5ft 9s 6s 4 7 mph 1021.6mb 53f 52f
12:20 5ft 9s 6s 9 9 mph 1021.7mb 53f 53f
Sáb 08/19 11:50 5.5ft 8s 6s 7 9 mph 1021.7mb 52f 53f
11:20 6ft 8s 6s 7 7 mph 1021.8mb 53f 53f
10:50 5ft 8s 6s 7 9 mph 1021.7mb 53f 54f
10:20 5.5ft 8s 7s 7 9 mph 1021.9mb 53f 54f
9:50 5.5ft 8s 7s 4 7 mph 1022mb 54f 55f
9:20 6ft 8s 7s 9 11 mph 1021.9mb 54f 55f
8:50 5.5ft 9s 7s 9 11 mph 1022mb 54f 55f
8:20 5ft 9s 7s 9 11 mph 1021.8mb 54f 55f
7:50 5ft 8s 7s 11 13 mph 1022.1mb 54f 55f
7:20 5ft 10s 7s 9 9 mph 1022.2mb 54f 56f
6:50 5ft 8s 7s 9 9 mph 1022.3mb 54f 56f
6:20 5.5ft 9s 7s 9 11 mph 1022.5mb 55f 56f
5:50 5.5ft 9s 7s 9 9 mph 1022.5mb 55f 56f
5:20 5.5ft 8s 7s 7 9 mph 1022.7mb 55f 56f
4:50 6ft 6s 7s 7 9 mph 1022.8mb 55f 56f
4:20 5ft 10s 7s 9 9 mph 1023mb 55f 56f
3:50 5.5ft 8s 7s 7 9 mph 1023.1mb 55f 55f
3:20 5.5ft 8s 7s 4 7 mph 1023.3mb 55f 55f
2:50 5.5ft 8s 7s 4 7 mph 1023.4mb 55f 55f
2:20 5ft 8s 7s 4 7 mph 1023.5mb 55f 55f
1:50 5.5ft 7s 6s 4 7 mph 1023.6mb 54f 55f
1:20 5ft 8s 6s 4 7 mph 1023.4mb 54f 55f
12:50 5.5ft 8s 6s 4 4 mph 1023.5mb 54f 55f
11:50 6ft 6s 6s 2 4 mph 1023.2mb 54f 55f
11:20 6ft 8s 6s 2 2 mph 1023.3mb 54f 54f
10:50 6ft 7s 6s 4 7 mph 1023.1mb 54f 54f
10:20 6.5ft 8s 6s 4 7 mph 1023mb 54f 54f
9:50 6.5ft 8s 6s 2 7 mph 1022.9mb 54f 54f
9:20 6.5ft 7s 7s 7 9 mph 1022.8mb 54f 54f
8:50 6ft 8s 7s 4 9 mph 1022.7mb 54f 54f
8:20 6ft 8s 7s 7 9 mph 1022.6mb 54f 54f
7:50 6ft 8s 7s 7 11 mph 1022.4mb 54f 54f
7:20 6.5ft 9s 7s 9 11 mph 1022.1mb 54f 54f
6:50 6ft 10s 7s 7 9 mph 1022mb 54f 54f
6:20 6ft 9s 7s 4 7 mph 1021.9mb 54f 54f
5:50 6ft 7s 7s 4 7 mph 1021.8mb 54f 54f
5:20 6ft 8s 7s 4 7 mph 1021.7mb 54f 54f
4:50 5ft 10s 7s 2 4 mph 1021.7mb 54f 54f
4:20 6ft 10s 7s 4 7 mph 1021.8mb 54f 54f
3:50 6ft 10s 7s 4 7 mph 1021.7mb 54f 54f
3:20 6ft 9s 7s 4 4 mph 1021.6mb 54f 54f
2:50 6ft 9s 7s 4 7 mph 1021.6mb 54f 54f
2:20 5.5ft 7s 7s 2 4 mph 1021.5mb 54f 54f
1:20 5ft 9s 7s 2 4 mph 1021.3mb 54f 54f
12:50 5ft 9s 7s 7 9 mph 1021.4mb 54f 55f
12:20 5ft 9s 6s 9 9 mph 1021.3mb 54f 55f
Sex 08/18 11:50 4.5ft 8s 6s 9 9 mph 1021.5mb 54f 54f
11:20 4.5ft 9s 6s 9 11 mph 1021.6mb 53f 54f
10:50 4.5ft 9s 6s 11 13 mph 1021.5mb 54f 55f
10:20 5.5ft 9s 7s 11 13 mph 1021.5mb 54f 55f
9:50 5.5ft 7s 7s 9 11 mph 1021.6mb 54f 55f
9:20 5ft 9s 7s 9 9 mph 1021.8mb 55f 55f
8:50 4.5ft 8s 7s 9 9 mph 1021.6mb 55f 55f
8:20 5.5ft 9s 8s 7 9 mph 1021.6mb 55f 56f
7:50 5ft 9s 8s 11 13 mph 1021.4mb 55f 56f
7:20 5ft 9s 8s 9 11 mph 1021.4mb 55f 56f
6:50 5.5ft 9s 8s 9 11 mph 1021.5mb 55f 56f
6:20 5.5ft 9s 8s 9 9 mph 1021.6mb 55f 56f
5:50 5.5ft 9s 8s 2 4 mph 1021.7mb 55f 56f
5:20 5.5ft 9s 8s 2 4 mph 1021.6mb 55f 56f
4:50 5.5ft 9s 8s 9 9 mph 1021.7mb 55f 56f
4:20 5.5ft 9s 8s 9 9 mph 1021.8mb 55f 56f
3:50 5ft 9s 8s 9 9 mph 1021.9mb 55f 56f
3:20 5.5ft 8s 8s 7 9 mph 1021.9mb 54f 55f
2:50 5.5ft 10s 8s 7 9 mph 1022.1mb 54f 55f
2:20 5ft 9s 8s 7 7 mph 1022mb 54f 55f
1:50 5ft 9s 8s 7 7 mph 1021.9mb 54f 55f
1:20 5ft 10s 7s 9 11 mph 1021.8mb 54f 56f
12:50 5ft 9s 7s 11 13 mph 1021.5mb 54f 55f
12:20 4.5ft 9s 7s 13 16 mph 1021.5mb 54f 55f
11:50 4.5ft 10s 7s 13 16 mph 1021.3mb 54f 55f
11:20 5ft 9s 7s 13 16 mph 1021.2mb 54f 55f
10:50 4.5ft 9s 7s 13 16 mph 1021.1mb 54f 55f
10:20 5ft 10s 7s 13 16 mph 1021mb 54f 55f
9:50 5ft 11s 7s 11 13 mph 1020.9mb 54f 55f
9:20 4.5ft 11s 7s 11 13 mph 1020.8mb 54f 55f
8:50 5.5ft 11s 8s 9 11 mph 1020.9mb 54f 55f
8:20 5.5ft 10s 8s 9 11 mph 1020.9mb 54f 55f
7:50 5ft 10s 8s 7 9 mph 1021.1mb 54f 55f
7:20 5ft 11s 8s 7 7 mph 1021.2mb 54f 55f
6:50 5.5ft 11s 8s 4 7 mph 1021.2mb 54f 55f
6:20 5ft 11s 8s 4 4 mph 1021.1mb 54f 55f
5:50 5ft 11s 8s 4 4 mph 1021.1mb 54f 55f
5:20 5ft 11s 9s 4 7 mph 1021.1mb 54f 55f
4:50 5ft 10s 8s 4 7 mph 1021.2mb 54f 55f
4:20 5ft 12s 9s 4 7 mph 1021.1mb 54f 55f
3:50 5.5ft 11s 9s 7 7 mph 1021.1mb 54f 55f
3:20 6ft 10s 9s 7 7 mph 1021mb 54f 55f
2:50 6ft 11s 9s 4 7 mph 1021.1mb 54f 55f
2:20 6ft 10s 8s 4 7 mph 1021.3mb 54f 55f
1:50 5ft 10s 8s 4 4 mph 1021.3mb 54f 55f
1:20 5.5ft 11s 8s 7 7 mph 1021.4mb 54f 55f
12:50 6ft 9s 8s 9 9 mph 1021.3mb 54f 55f
12:20 6ft 10s 8s 9 9 mph 1021.4mb 54f 55f
Qui 08/17 11:50 6ft 11s 8s 7 9 mph 1021.5mb 55f 55f
11:20 6ft 11s 8s 7 9 mph 1021.7mb 55f 55f
10:50 5ft 10s 8s 9 11 mph 1021.9mb 55f 56f
10:20 6ft 10s 8s 9 11 mph 1021.9mb 55f 55f
9:50 6ft 11s 8s 9 11 mph 1021.9mb 55f 55f
9:20 7ft 10s 8s 9 11 mph 1022.2mb 55f 55f
8:50 7ft 11s 8s 9 11 mph 1022mb 55f 56f
8:20 7.5ft 10s 9s 9 11 mph 1022mb 55f 55f
7:50 7ft 11s 8s 9 9 mph 1021.9mb 54f 55f
7:20 7ft 11s 9s 9 11 mph 1022mb 54f 56f
6:50 7ft 11s 9s 7 9 mph 1022mb 54f 56f
6:20 6.5ft 11s 8s 7 9 mph 1022.1mb 54f 56f
5:50 7ft 11s 9s 7 9 mph 1022.3mb 55f 56f
5:20 7ft 11s 9s 7 9 mph 1022.5mb 55f 56f
4:50 6ft 11s 9s 7 9 mph 1022.7mb 55f 56f
4:20 6.5ft 11s 8s 7 9 mph 1022.9mb 55f 56f